sensor_id;sensor_type;location;lat;lon;timestamp;pressure;altitude;pressure_sealevel;temperature;humidity
31346;BME280;21711;49.708;18.568;2024-02-28T00:00:59;97249.56;;;12.57;95.01
31346;BME280;21711;49.708;18.568;2024-02-28T00:03:27;97245.28;;;12.61;96.58
31346;BME280;21711;49.708;18.568;2024-02-28T00:05:54;97243.06;;;12.49;98.57
31346;BME280;21711;49.708;18.568;2024-02-28T00:08:21;97246.06;;;12.18;100.00
31346;BME280;21711;49.708;18.568;2024-02-28T00:10:49;97252.94;;;12.19;100.00
31346;BME280;21711;49.708;18.568;2024-02-28T00:13:16;97246.34;;;12.16;100.00
31346;BME280;21711;49.708;18.568;2024-02-28T00:15:44;97248.34;;;12.05;100.00
31346;BME280;21711;49.708;18.568;2024-02-28T00:18:11;97250.28;;;12.19;100.00
31346;BME280;21711;49.708;18.568;2024-02-28T00:20:38;97249.38;;;12.09;100.00
31346;BME280;21711;49.708;18.568;2024-02-28T00:23:06;97252.28;;;12.08;100.00
31346;BME280;21711;49.708;18.568;2024-02-28T00:25:33;97248.84;;;12.07;100.00
31346;BME280;21711;49.708;18.568;2024-02-28T00:28:00;97253.31;;;12.12;100.00
31346;BME280;21711;49.708;18.568;2024-02-28T00:30:28;97247.16;;;12.17;100.00
31346;BME280;21711;49.708;18.568;2024-02-28T00:32:56;97248.72;;;12.18;100.00
31346;BME280;21711;49.708;18.568;2024-02-28T00:35:23;97249.06;;;12.11;100.00
31346;BME280;21711;49.708;18.568;2024-02-28T00:37:51;97253.53;;;12.16;100.00
31346;BME280;21711;49.708;18.568;2024-02-28T00:40:18;97241.03;;;12.16;100.00
31346;BME280;21711;49.708;18.568;2024-02-28T00:42:45;97248.22;;;12.16;100.00
31346;BME280;21711;49.708;18.568;2024-02-28T00:45:13;97238.75;;;12.04;100.00
31346;BME280;21711;49.708;18.568;2024-02-28T00:47:41;97243.41;;;11.93;100.00
31346;BME280;21711;49.708;18.568;2024-02-28T00:50:09;97240.91;;;12.02;100.00
31346;BME280;21711;49.708;18.568;2024-02-28T00:52:37;97239.16;;;11.92;100.00
31346;BME280;21711;49.708;18.568;2024-02-28T00:55:05;97240.00;;;11.88;100.00
31346;BME280;21711;49.708;18.568;2024-02-28T00:57:32;97236.28;;;11.89;100.00
31346;BME280;21711;49.708;18.568;2024-02-28T01:00:00;97238.50;;;11.81;100.00
31346;BME280;21711;49.708;18.568;2024-02-28T01:02:27;97227.81;;;11.62;100.00
31346;BME280;21711;49.708;18.568;2024-02-28T01:04:55;97229.34;;;11.68;100.00
31346;BME280;21711;49.708;18.568;2024-02-28T01:07:22;97227.47;;;11.69;100.00
31346;BME280;21711;49.708;18.568;2024-02-28T01:09:49;97235.94;;;11.71;100.00
31346;BME280;21711;49.708;18.568;2024-02-28T01:12:17;97227.81;;;11.62;100.00
31346;BME280;21711;49.708;18.568;2024-02-28T01:14:44;97232.31;;;11.62;100.00
31346;BME280;21711;49.708;18.568;2024-02-28T01:17:12;97223.41;;;11.52;100.00
31346;BME280;21711;49.708;18.568;2024-02-28T01:19:40;97224.41;;;11.56;100.00
31346;BME280;21711;49.708;18.568;2024-02-28T01:22:07;97219.41;;;11.55;100.00
31346;BME280;21711;49.708;18.568;2024-02-28T01:24:36;97224.19;;;11.53;100.00
31346;BME280;21711;49.708;18.568;2024-02-28T01:27:04;97224.75;;;11.50;100.00
31346;BME280;21711;49.708;18.568;2024-02-28T01:29:31;97221.88;;;11.46;100.00
31346;BME280;21711;49.708;18.568;2024-02-28T01:31:58;97225.00;;;11.53;100.00
31346;BME280;21711;49.708;18.568;2024-02-28T01:34:26;97218.34;;;11.56;100.00
31346;BME280;21711;49.708;18.568;2024-02-28T01:36:53;97215.50;;;11.47;100.00
31346;BME280;21711;49.708;18.568;2024-02-28T01:39:21;97208.63;;;11.46;100.00
31346;BME280;21711;49.708;18.568;2024-02-28T01:41:53;97216.41;;;11.37;100.00
31346;BME280;21711;49.708;18.568;2024-02-28T01:44:21;97205.59;;;11.34;100.00
31346;BME280;21711;49.708;18.568;2024-02-28T01:46:49;97210.41;;;11.26;100.00
31346;BME280;21711;49.708;18.568;2024-02-28T01:49:17;97206.94;;;11.26;100.00
31346;BME280;21711;49.708;18.568;2024-02-28T01:51:45;97201.25;;;11.13;100.00
31346;BME280;21711;49.708;18.568;2024-02-28T01:54:15;97207.31;;;11.14;100.00
31346;BME280;21711;49.708;18.568;2024-02-28T01:56:43;97198.88;;;11.12;100.00
31346;BME280;21711;49.708;18.568;2024-02-28T01:59:11;97201.03;;;11.10;100.00
31346;BME280;21711;49.708;18.568;2024-02-28T02:01:39;97200.25;;;11.04;100.00
31346;BME280;21711;49.708;18.568;2024-02-28T02:04:06;97200.00;;;11.05;100.00
31346;BME280;21711;49.708;18.568;2024-02-28T02:06:38;97203.41;;;11.06;100.00
31346;BME280;21711;49.708;18.568;2024-02-28T02:09:09;97199.72;;;11.02;100.00
31346;BME280;21711;49.708;18.568;2024-02-28T02:11:38;97200.34;;;10.94;100.00
31346;BME280;21711;49.708;18.568;2024-02-28T02:14:05;97201.97;;;10.89;100.00
31346;BME280;21711;49.708;18.568;2024-02-28T02:16:33;97199.50;;;10.98;100.00
31346;BME280;21711;49.708;18.568;2024-02-28T02:19:00;97199.59;;;10.88;100.00
31346;BME280;21711;49.708;18.568;2024-02-28T02:21:31;97202.50;;;10.86;100.00
31346;BME280;21711;49.708;18.568;2024-02-28T02:24:01;97202.00;;;10.84;100.00
31346;BME280;21711;49.708;18.568;2024-02-28T02:26:29;97206.25;;;10.80;100.00
31346;BME280;21711;49.708;18.568;2024-02-28T02:28:56;97206.88;;;10.67;100.00
31346;BME280;21711;49.708;18.568;2024-02-28T02:31:24;97206.22;;;10.85;100.00
31346;BME280;21711;49.708;18.568;2024-02-28T02:33:51;97207.75;;;10.91;100.00
31346;BME280;21711;49.708;18.568;2024-02-28T02:36:18;97205.88;;;10.97;100.00
31346;BME280;21711;49.708;18.568;2024-02-28T02:38:45;97203.75;;;10.94;100.00
31346;BME280;21711;49.708;18.568;2024-02-28T02:41:13;97210.13;;;10.93;100.00
31346;BME280;21711;49.708;18.568;2024-02-28T02:43:40;97207.16;;;11.00;100.00
31346;BME280;21711;49.708;18.568;2024-02-28T02:46:08;97204.25;;;11.01;100.00
31346;BME280;21711;49.708;18.568;2024-02-28T02:48:35;97209.06;;;10.94;100.00
31346;BME280;21711;49.708;18.568;2024-02-28T02:51:03;97202.47;;;10.91;100.00
31346;BME280;21711;49.708;18.568;2024-02-28T02:53:33;97204.34;;;10.86;100.00
31346;BME280;21711;49.708;18.568;2024-02-28T02:56:04;97213.31;;;10.90;100.00
31346;BME280;21711;49.708;18.568;2024-02-28T02:58:32;97213.28;;;10.95;100.00
31346;BME280;21711;49.708;18.568;2024-02-28T03:00:59;97210.31;;;11.02;100.00
31346;BME280;21711;49.708;18.568;2024-02-28T03:03:27;97212.19;;;11.01;100.00
31346;BME280;21711;49.708;18.568;2024-02-28T03:05:54;97216.44;;;10.97;100.00
31346;BME280;21711;49.708;18.568;2024-02-28T03:08:22;97217.78;;;10.95;100.00
31346;BME280;21711;49.708;18.568;2024-02-28T03:10:49;97216.63;;;11.06;100.00
31346;BME280;21711;49.708;18.568;2024-02-28T03:13:16;97212.47;;;11.00;100.00
31346;BME280;21711;49.708;18.568;2024-02-28T03:15:44;97213.81;;;10.97;100.00
31346;BME280;21711;49.708;18.568;2024-02-28T03:18:11;97216.53;;;10.87;100.00
31346;BME280;21711;49.708;18.568;2024-02-28T03:20:38;97216.69;;;11.01;100.00
31346;BME280;21711;49.708;18.568;2024-02-28T03:23:06;97220.91;;;11.02;100.00
31346;BME280;21711;49.708;18.568;2024-02-28T03:25:34;97215.59;;;11.02;100.00
31346;BME280;21711;49.708;18.568;2024-02-28T03:28:01;97218.56;;;10.95;100.00
31346;BME280;21711;49.708;18.568;2024-02-28T03:30:29;97217.78;;;10.95;100.00
31346;BME280;21711;49.708;18.568;2024-02-28T03:32:56;97227.09;;;10.87;100.00
31346;BME280;21711;49.708;18.568;2024-02-28T03:35:23;97225.31;;;10.77;100.00
31346;BME280;21711;49.708;18.568;2024-02-28T03:37:51;97226.63;;;10.79;100.00
31346;BME280;21711;49.708;18.568;2024-02-28T03:40:18;97226.84;;;10.83;100.00
31346;BME280;21711;49.708;18.568;2024-02-28T03:42:46;97221.88;;;10.76;100.00
31346;BME280;21711;49.708;18.568;2024-02-28T03:45:13;97224.19;;;10.83;100.00
31346;BME280;21711;49.708;18.568;2024-02-28T03:47:41;97234.06;;;10.72;100.00
31346;BME280;21711;49.708;18.568;2024-02-28T03:50:08;97232.47;;;10.71;100.00
31346;BME280;21711;49.708;18.568;2024-02-28T03:52:36;97235.88;;;10.77;100.00
31346;BME280;21711;49.708;18.568;2024-02-28T03:55:03;97227.91;;;10.82;100.00
31346;BME280;21711;49.708;18.568;2024-02-28T03:57:31;97232.13;;;10.83;100.00
31346;BME280;21711;49.708;18.568;2024-02-28T04:00:00;97238.19;;;10.89;100.00
31346;BME280;21711;49.708;18.568;2024-02-28T04:02:37;97240.03;;;10.94;100.00
31346;BME280;21711;49.708;18.568;2024-02-28T04:05:05;97230.00;;;10.90;100.00
31346;BME280;21711;49.708;18.568;2024-02-28T04:07:33;97240.56;;;10.90;100.00
31346;BME280;21711;49.708;18.568;2024-02-28T04:10:00;97244.81;;;10.86;100.00
31346;BME280;21711;49.708;18.568;2024-02-28T04:12:28;97243.47;;;10.89;100.00
31346;BME280;21711;49.708;18.568;2024-02-28T04:14:56;97244.28;;;10.89;100.00
31346;BME280;21711;49.708;18.568;2024-02-28T04:17:24;97246.25;;;10.68;100.00
31346;BME280;21711;49.708;18.568;2024-02-28T04:19:52;97244.13;;;10.70;100.00
31346;BME280;21711;49.708;18.568;2024-02-28T04:22:19;97247.59;;;10.65;100.00
31346;BME280;21711;49.708;18.568;2024-02-28T04:24:46;97253.66;;;10.66;100.00
31346;BME280;21711;49.708;18.568;2024-02-28T04:27:14;97250.78;;;10.62;100.00
31346;BME280;21711;49.708;18.568;2024-02-28T04:29:41;97256.53;;;10.75;100.00
31346;BME280;21711;49.708;18.568;2024-02-28T04:32:08;97253.91;;;10.75;100.00
31346;BME280;21711;49.708;18.568;2024-02-28T04:34:36;97257.38;;;10.65;100.00
31346;BME280;21711;49.708;18.568;2024-02-28T04:37:04;97265.34;;;10.60;100.00
31346;BME280;21711;49.708;18.568;2024-02-28T04:39:31;97262.09;;;10.73;100.00
31346;BME280;21711;49.708;18.568;2024-02-28T04:41:59;97261.84;;;10.75;100.00
31346;BME280;21711;49.708;18.568;2024-02-28T04:44:26;97260.22;;;10.79;100.00
31346;BME280;21711;49.708;18.568;2024-02-28T04:46:54;97262.31;;;10.82;100.00
31346;BME280;21711;49.708;18.568;2024-02-28T04:49:21;97266.22;;;10.90;100.00
31346;BME280;21711;49.708;18.568;2024-02-28T04:51:50;97270.47;;;10.91;100.00
31346;BME280;21711;49.708;18.568;2024-02-28T04:54:17;97266.50;;;10.94;100.00
31346;BME280;21711;49.708;18.568;2024-02-28T04:56:45;97265.19;;;10.91;100.00
31346;BME280;21711;49.708;18.568;2024-02-28T04:59:13;97270.22;;;10.87;100.00
31346;BME280;21711;49.708;18.568;2024-02-28T05:01:41;97264.97;;;10.77;100.00
31346;BME280;21711;49.708;18.568;2024-02-28T05:04:09;97276.63;;;10.76;100.00
31346;BME280;21711;49.708;18.568;2024-02-28T05:06:37;97279.25;;;10.81;100.00
31346;BME280;21711;49.708;18.568;2024-02-28T05:09:06;97281.50;;;11.03;100.00
31346;BME280;21711;49.708;18.568;2024-02-28T05:11:34;97278.81;;;11.09;100.00
31346;BME280;21711;49.708;18.568;2024-02-28T05:14:01;97284.16;;;10.98;100.00
31346;BME280;21711;49.708;18.568;2024-02-28T05:16:29;97289.97;;;11.05;100.00
31346;BME280;21711;49.708;18.568;2024-02-28T05:18:56;97287.91;;;10.92;100.00
31346;BME280;21711;49.708;18.568;2024-02-28T05:21:24;97283.28;;;11.13;100.00
31346;BME280;21711;49.708;18.568;2024-02-28T05:23:51;97289.53;;;11.28;100.00
31346;BME280;21711;49.708;18.568;2024-02-28T05:26:18;97286.09;;;11.27;100.00
31346;BME280;21711;49.708;18.568;2024-02-28T05:28:46;97290.34;;;11.23;100.00
31346;BME280;21711;49.708;18.568;2024-02-28T05:31:26;97290.47;;;11.08;100.00
31346;BME280;21711;49.708;18.568;2024-02-28T05:33:56;97287.47;;;11.20;100.00
31346;BME280;21711;49.708;18.568;2024-02-28T05:36:26;97284.75;;;11.30;100.00
31346;BME280;21711;49.708;18.568;2024-02-28T05:38:56;97298.25;;;11.28;100.00
31346;BME280;21711;49.708;18.568;2024-02-28T05:41:24;97295.28;;;11.35;100.00
31346;BME280;21711;49.708;18.568;2024-02-28T05:43:52;97304.81;;;11.41;100.00
31346;BME280;21711;49.708;18.568;2024-02-28T05:46:20;97301.91;;;11.38;100.00
31346;BME280;21711;49.708;18.568;2024-02-28T05:48:49;97313.28;;;11.38;100.00
31346;BME280;21711;49.708;18.568;2024-02-28T05:51:19;97313.25;;;11.43;100.00
31346;BME280;21711;49.708;18.568;2024-02-28T05:53:47;97310.38;;;11.40;100.00
31346;BME280;21711;49.708;18.568;2024-02-28T05:56:15;97322.41;;;11.56;100.00
31346;BME280;21711;49.708;18.568;2024-02-28T05:58:46;97319.97;;;11.30;100.00
31346;BME280;21711;49.708;18.568;2024-02-28T06:01:17;97323.72;;;11.24;100.00
31346;BME280;21711;49.708;18.568;2024-02-28T06:03:48;97323.94;;;11.28;100.00
31346;BME280;21711;49.708;18.568;2024-02-28T06:06:15;97317.47;;;11.44;100.00
31346;BME280;21711;49.708;18.568;2024-02-28T06:08:43;97324.00;;;11.23;100.00
31346;BME280;21711;49.708;18.568;2024-02-28T06:11:11;97319.44;;;11.28;100.00
31346;BME280;21711;49.708;18.568;2024-02-28T06:13:41;97329.41;;;11.42;100.00
31346;BME280;21711;49.708;18.568;2024-02-28T06:16:14;97325.00;;;11.62;100.00
31346;BME280;21711;49.708;18.568;2024-02-28T06:18:43;97335.22;;;11.79;100.00
31346;BME280;21711;49.708;18.568;2024-02-28T06:21:11;97334.09;;;11.85;100.00
31346;BME280;21711;49.708;18.568;2024-02-28T06:23:38;97332.22;;;11.91;100.00
31346;BME280;21711;49.708;18.568;2024-02-28T06:26:06;97336.91;;;11.69;100.00
31346;BME280;21711;49.708;18.568;2024-02-28T06:28:33;97338.41;;;11.76;100.00
31346;BME280;21711;49.708;18.568;2024-02-28T06:31:01;97329.66;;;11.75;100.00
31346;BME280;21711;49.708;18.568;2024-02-28T06:33:29;97335.06;;;11.65;100.00
31346;BME280;21711;49.708;18.568;2024-02-28T06:35:56;97335.59;;;11.67;100.00
31346;BME280;21711;49.708;18.568;2024-02-28T06:38:24;97346.88;;;11.78;100.00
31346;BME280;21711;49.708;18.568;2024-02-28T06:40:51;97347.94;;;11.77;100.00
31346;BME280;21711;49.708;18.568;2024-02-28T06:43:19;97346.25;;;11.56;100.00
31346;BME280;21711;49.708;18.568;2024-02-28T06:45:46;97336.94;;;11.59;100.00
31346;BME280;21711;49.708;18.568;2024-02-28T06:48:14;97345.66;;;11.65;100.00
31346;BME280;21711;49.708;18.568;2024-02-28T06:50:42;97355.13;;;11.76;100.00
31346;BME280;21711;49.708;18.568;2024-02-28T06:53:09;97362.72;;;11.83;100.00
31346;BME280;21711;49.708;18.568;2024-02-28T06:55:37;97357.09;;;11.90;100.00
31346;BME280;21711;49.708;18.568;2024-02-28T06:58:04;97365.53;;;11.97;100.00
31346;BME280;21711;49.708;18.568;2024-02-28T07:00:32;97374.78;;;12.00;100.00
31346;BME280;21711;49.708;18.568;2024-02-28T07:03:00;97361.94;;;11.82;100.00
31346;BME280;21711;49.708;18.568;2024-02-28T07:05:27;97358.50;;;11.82;100.00
31346;BME280;21711;49.708;18.568;2024-02-28T07:07:55;97364.25;;;11.60;100.00
31346;BME280;21711;49.708;18.568;2024-02-28T07:10:22;97358.81;;;11.75;100.00
31346;BME280;21711;49.708;18.568;2024-02-28T07:12:50;97368.00;;;11.53;100.00
31346;BME280;21711;49.708;18.568;2024-02-28T07:15:18;97371.69;;;11.57;100.00
31346;BME280;21711;49.708;18.568;2024-02-28T07:17:48;97366.41;;;11.07;100.00
31346;BME280;21711;49.708;18.568;2024-02-28T07:20:16;97368.50;;;11.10;100.00
31346;BME280;21711;49.708;18.568;2024-02-28T07:22:44;97373.19;;;10.73;100.00
31346;BME280;21711;49.708;18.568;2024-02-28T07:25:11;97377.09;;;10.86;100.00
31346;BME280;21711;49.708;18.568;2024-02-28T07:27:38;97380.03;;;10.79;100.00
31346;BME280;21711;49.708;18.568;2024-02-28T07:30:06;97374.72;;;10.85;100.00
31346;BME280;21711;49.708;18.568;2024-02-28T07:32:34;97382.47;;;10.71;100.00
31346;BME280;21711;49.708;18.568;2024-02-28T07:35:03;97390.16;;;10.57;100.00
31346;BME280;21711;49.708;18.568;2024-02-28T07:37:30;97379.09;;;10.39;100.00
31346;BME280;21711;49.708;18.568;2024-02-28T07:39:57;97382.28;;;10.25;100.00
31346;BME280;21711;49.708;18.568;2024-02-28T07:42:25;97386.97;;;10.65;100.00
31346;BME280;21711;49.708;18.568;2024-02-28T07:44:53;97393.31;;;10.64;100.00
31346;BME280;21711;49.708;18.568;2024-02-28T07:47:24;97381.75;;;10.23;100.00
31346;BME280;21711;49.708;18.568;2024-02-28T07:49:52;97388.38;;;9.95;100.00
31346;BME280;21711;49.708;18.568;2024-02-28T07:52:20;97397.88;;;10.11;100.00
31346;BME280;21711;49.708;18.568;2024-02-28T07:54:48;97398.91;;;10.52;100.00
31346;BME280;21711;49.708;18.568;2024-02-28T07:57:16;97400.00;;;10.46;100.00
31346;BME280;21711;49.708;18.568;2024-02-28T07:59:44;97402.09;;;10.23;100.00
31346;BME280;21711;49.708;18.568;2024-02-28T08:02:11;97410.81;;;10.49;100.00
31346;BME280;21711;49.708;18.568;2024-02-28T08:04:40;97397.34;;;10.25;100.00
31346;BME280;21711;49.708;18.568;2024-02-28T08:07:07;97399.16;;;10.40;100.00
31346;BME280;21711;49.708;18.568;2024-02-28T08:09:35;97405.25;;;10.56;100.00
31346;BME280;21711;49.708;18.568;2024-02-28T08:12:02;97405.81;;;10.01;100.00
31346;BME280;21711;49.708;18.568;2024-02-28T08:14:29;97408.19;;;9.66;100.00
31346;BME280;21711;49.708;18.568;2024-02-28T08:16:57;97405.03;;;9.85;100.00
31346;BME280;21711;49.708;18.568;2024-02-28T08:19:24;97403.44;;;10.25;100.00
31346;BME280;21711;49.708;18.568;2024-02-28T08:21:51;97410.03;;;10.07;100.00
31346;BME280;21711;49.708;18.568;2024-02-28T08:24:19;97407.63;;;10.37;100.00
31346;BME280;21711;49.708;18.568;2024-02-28T08:26:46;97414.25;;;10.29;100.00
31346;BME280;21711;49.708;18.568;2024-02-28T08:29:14;97422.44;;;10.43;100.00
31346;BME280;21711;49.708;18.568;2024-02-28T08:31:43;97420.03;;;10.62;100.00
31346;BME280;21711;49.708;18.568;2024-02-28T08:34:11;97423.44;;;10.73;100.00
31346;BME280;21711;49.708;18.568;2024-02-28T08:36:38;97431.56;;;10.92;100.00
31346;BME280;21711;49.708;18.568;2024-02-28T08:39:06;97426.66;;;10.55;100.00
31346;BME280;21711;49.708;18.568;2024-02-28T08:41:36;97419.53;;;10.45;100.00
31346;BME280;21711;49.708;18.568;2024-02-28T08:44:04;97421.28;;;10.81;100.00
31346;BME280;21711;49.708;18.568;2024-02-28T08:46:31;97422.16;;;11.26;100.00
31346;BME280;21711;49.708;18.568;2024-02-28T08:48:58;97426.72;;;11.15;100.00
31346;BME280;21711;49.708;18.568;2024-02-28T08:51:26;97429.91;;;11.17;100.00
31346;BME280;21711;49.708;18.568;2024-02-28T08:53:54;97428.75;;;11.34;100.00
31346;BME280;21711;49.708;18.568;2024-02-28T08:56:22;97425.31;;;11.28;100.00
31346;BME280;21711;49.708;18.568;2024-02-28T08:58:50;97425.41;;;11.58;100.00
31346;BME280;21711;49.708;18.568;2024-02-28T09:01:17;97432.03;;;11.61;100.00
31346;BME280;21711;49.708;18.568;2024-02-28T09:03:45;97422.00;;;11.92;100.00
31346;BME280;21711;49.708;18.568;2024-02-28T09:06:12;97439.81;;;11.87;100.00
31346;BME280;21711;49.708;18.568;2024-02-28T09:08:39;97428.47;;;12.16;100.00
31346;BME280;21711;49.708;18.568;2024-02-28T09:11:07;97437.66;;;12.29;100.00
31346;BME280;21711;49.708;18.568;2024-02-28T09:13:34;97452.34;;;12.16;100.00
31346;BME280;21711;49.708;18.568;2024-02-28T09:16:05;97444.41;;;12.40;100.00
31346;BME280;21711;49.708;18.568;2024-02-28T09:18:32;97447.16;;;11.60;100.00
31346;BME280;21711;49.708;18.568;2024-02-28T09:21:00;97454.47;;;11.23;100.00
31346;BME280;21711;49.708;18.568;2024-02-28T09:23:28;97445.59;;;10.93;100.00
31346;BME280;21711;49.708;18.568;2024-02-28T09:25:55;97451.03;;;11.28;100.00
31346;BME280;21711;49.708;18.568;2024-02-28T09:28:23;97443.28;;;11.37;100.00
31346;BME280;21711;49.708;18.568;2024-02-28T09:30:50;97449.34;;;11.42;100.00
31346;BME280;21711;49.708;18.568;2024-02-28T09:33:20;97449.19;;;11.68;100.00
31346;BME280;21711;49.708;18.568;2024-02-28T09:35:47;97457.59;;;11.81;100.00
31346;BME280;21711;49.708;18.568;2024-02-28T09:38:15;97466.59;;;11.85;100.00
31346;BME280;21711;49.708;18.568;2024-02-28T09:40:46;97457.44;;;11.62;100.00
31346;BME280;21711;49.708;18.568;2024-02-28T09:43:30;97457.28;;;11.88;100.00
31346;BME280;21711;49.708;18.568;2024-02-28T09:46:03;97467.13;;;11.37;100.00
31346;BME280;21711;49.708;18.568;2024-02-28T09:48:31;97467.25;;;11.05;100.00
31346;BME280;21711;49.708;18.568;2024-02-28T09:51:00;97462.38;;;11.34;100.00
31346;BME280;21711;49.708;18.568;2024-02-28T09:53:28;97470.78;;;11.46;100.00
31346;BME280;21711;49.708;18.568;2024-02-28T09:55:55;97470.44;;;11.58;100.00
31346;BME280;21711;49.708;18.568;2024-02-28T09:58:23;97478.50;;;12.28;100.00
31346;BME280;21711;49.708;18.568;2024-02-28T10:00:52;97482.06;;;12.72;100.00
31346;BME280;21711;49.708;18.568;2024-02-28T10:03:25;97487.22;;;12.28;100.00
31346;BME280;21711;49.708;18.568;2024-02-28T10:05:53;97482.69;;;11.94;100.00
31346;BME280;21711;49.708;18.568;2024-02-28T10:08:20;97490.41;;;12.30;100.00
31346;BME280;21711;49.708;18.568;2024-02-28T10:10:48;97492.06;;;12.80;100.00
31346;BME280;21711;49.708;18.568;2024-02-28T10:13:16;97494.44;;;13.06;100.00
31346;BME280;21711;49.708;18.568;2024-02-28T10:15:44;97497.19;;;12.71;100.00
31346;BME280;21711;49.708;18.568;2024-02-28T10:18:12;97491.69;;;12.33;100.00
31346;BME280;21711;49.708;18.568;2024-02-28T10:20:39;97494.84;;;12.00;100.00
31346;BME280;21711;49.708;18.568;2024-02-28T10:23:07;97498.44;;;12.20;100.00
31346;BME280;21711;49.708;18.568;2024-02-28T10:25:47;97495.78;;;12.55;100.00
31346;BME280;21711;49.708;18.568;2024-02-28T10:28:24;97505.72;;;12.39;100.00
31346;BME280;21711;49.708;18.568;2024-02-28T10:30:52;97494.53;;;12.12;100.00
31346;BME280;21711;49.708;18.568;2024-02-28T10:33:21;97504.41;;;12.66;100.00
31346;BME280;21711;49.708;18.568;2024-02-28T10:35:51;97505.56;;;12.84;100.00
31346;BME280;21711;49.708;18.568;2024-02-28T10:38:21;97501.34;;;13.07;100.00
31346;BME280;21711;49.708;18.568;2024-02-28T10:40:49;97507.16;;;12.85;100.00
31346;BME280;21711;49.708;18.568;2024-02-28T10:43:18;97491.47;;;12.29;100.00
31346;BME280;21711;49.708;18.568;2024-02-28T10:45:46;97494.16;;;12.83;100.00
31346;BME280;21711;49.708;18.568;2024-02-28T10:48:34;97493.13;;;13.28;100.00
31346;BME280;21711;49.708;18.568;2024-02-28T10:51:03;97498.44;;;13.28;100.00
31346;BME280;21711;49.708;18.568;2024-02-28T10:53:41;97501.50;;;12.92;100.00
31346;BME280;21711;49.708;18.568;2024-02-28T10:56:14;97496.03;;;13.07;100.00
31346;BME280;21711;49.708;18.568;2024-02-28T10:58:52;97506.13;;;13.54;100.00
31346;BME280;21711;49.708;18.568;2024-02-28T11:01:20;97507.78;;;13.88;100.00
31346;BME280;21711;49.708;18.568;2024-02-28T11:03:50;97499.72;;;14.13;100.00
31346;BME280;21711;49.708;18.568;2024-02-28T11:06:21;97503.97;;;14.14;100.00
31346;BME280;21711;49.708;18.568;2024-02-28T11:08:51;97512.94;;;14.18;100.00
31346;BME280;21711;49.708;18.568;2024-02-28T11:11:23;97513.88;;;14.08;100.00
31346;BME280;21711;49.708;18.568;2024-02-28T11:13:55;97510.38;;;13.93;100.00
31346;BME280;21711;49.708;18.568;2024-02-28T11:16:31;97508.94;;;13.38;100.00
31346;BME280;21711;49.708;18.568;2024-02-28T11:19:01;97508.72;;;13.98;100.00
31346;BME280;21711;49.708;18.568;2024-02-28T11:21:34;97517.25;;;13.56;100.00
31346;BME280;21711;49.708;18.568;2024-02-28T11:24:02;97525.59;;;13.68;100.00
31346;BME280;21711;49.708;18.568;2024-02-28T11:26:31;97520.88;;;13.85;100.00
31346;BME280;21711;49.708;18.568;2024-02-28T11:28:58;97518.06;;;13.95;100.00
31346;BME280;21711;49.708;18.568;2024-02-28T11:31:25;97519.91;;;13.94;100.00
31346;BME280;21711;49.708;18.568;2024-02-28T11:33:53;97511.81;;;13.66;100.00
31346;BME280;21711;49.708;18.568;2024-02-28T11:36:21;97520.03;;;14.23;100.00
31346;BME280;21711;49.708;18.568;2024-02-28T11:38:49;97522.78;;;14.51;98.22
31346;BME280;21711;49.708;18.568;2024-02-28T11:41:26;97521.28;;;14.44;96.95
31346;BME280;21711;49.708;18.568;2024-02-28T11:43:56;97528.19;;;14.45;97.50
31346;BME280;21711;49.708;18.568;2024-02-28T11:46:24;97533.66;;;14.02;98.71
31346;BME280;21711;49.708;18.568;2024-02-28T11:48:52;97526.91;;;14.43;97.90
31346;BME280;21711;49.708;18.568;2024-02-28T11:51:20;97526.69;;;14.72;93.94
31346;BME280;21711;49.708;18.568;2024-02-28T11:53:48;97528.56;;;14.39;96.23
31346;BME280;21711;49.708;18.568;2024-02-28T11:56:15;97523.84;;;14.16;96.24
31346;BME280;21711;49.708;18.568;2024-02-28T11:58:54;97522.09;;;14.78;93.90
31346;BME280;21711;49.708;18.568;2024-02-28T12:01:52;97523.81;;;15.02;89.24
31346;BME280;21711;49.708;18.568;2024-02-28T12:04:19;97533.13;;;14.85;89.73
31346;BME280;21711;49.708;18.568;2024-02-28T12:06:47;97535.69;;;14.43;91.94
31346;BME280;21711;49.708;18.568;2024-02-28T12:09:14;97528.53;;;14.05;94.97
31346;BME280;21711;49.708;18.568;2024-02-28T12:11:53;97534.72;;;14.53;92.35
31346;BME280;21711;49.708;18.568;2024-02-28T12:14:20;97534.22;;;13.99;94.02
31346;BME280;21711;49.708;18.568;2024-02-28T12:16:48;97536.97;;;13.25;100.00
31346;BME280;21711;49.708;18.568;2024-02-28T12:19:16;97540.47;;;13.70;98.91
31346;BME280;21711;49.708;18.568;2024-02-28T12:21:47;97533.97;;;12.83;100.00
31346;BME280;21711;49.708;18.568;2024-02-28T12:24:14;97526.94;;;13.22;100.00
31346;BME280;21711;49.708;18.568;2024-02-28T12:26:41;97532.47;;;13.50;100.00
31346;BME280;21711;49.708;18.568;2024-02-28T12:29:09;97539.47;;;13.85;97.07
31346;BME280;21711;49.708;18.568;2024-02-28T12:31:38;97539.59;;;12.76;100.00
31346;BME280;21711;49.708;18.568;2024-02-28T12:34:06;97542.44;;;13.10;100.00
31346;BME280;21711;49.708;18.568;2024-02-28T12:36:33;97540.09;;;13.33;100.00
31346;BME280;21711;49.708;18.568;2024-02-28T12:39:01;97540.44;;;13.50;100.00
31346;BME280;21711;49.708;18.568;2024-02-28T12:41:29;97545.56;;;13.41;100.00
31346;BME280;21711;49.708;18.568;2024-02-28T12:43:56;97546.34;;;13.18;100.00
31346;BME280;21711;49.708;18.568;2024-02-28T12:46:24;97550.75;;;12.79;100.00